Latest Weather Observations for Cunderdin Airport

IDW60801

Issued at 11:05 pm WST Wednesday 17 September 2014 (issued every 30 minutes, with the page automatically refreshed every 10 minutes)

About weather observations | Map of weather stations | Latest weather observations for WA | Other Formats
Station Details ID: 010286 Name: CUNDERDIN AIRFIELD Lat: -31.62 Lon: 117.22 Height: 216.7 m
Data from the previous 72 hours. | See also: Recent months at Cunderdin Airport
Date/Time
WST
Temp
°C
App
Temp
°C
Dew
Point
Rel
Hum
%
Delta-T
°C
Wind Press
QNH
hPa
Press
MSL
hPa
Rain
since 9 am
mm
Dir
 
Spd
km/h
Gust
km/h
Spd
kts
Gust
kts
17/11:00pm 16.4 14.4 8.6 60 4.0 S 9 15 5 8 1015.3 1015.2 0.0
17/10:30pm 17.4 14.7 8.8 57 4.5 SSE 13 19 7 10 1015.2 1015.1 0.0
17/10:00pm 18.3 14.4 8.8 54 5.0 SSE 19 26 10 14 1015.3 1015.2 0.0
17/09:30pm 18.9 15.2 9.4 54 5.1 SSE 19 24 10 13 1015.4 1015.3 0.0
17/09:00pm 19.3 15.7 10.0 55 5.0 SSE 19 28 10 15 1015.3 1015.2 0.0
17/08:30pm 19.6 15.9 10.0 54 5.2 SSE 20 26 11 14 1015.3 1015.2 0.0
17/08:00pm 20.1 16.0 10.2 53 5.4 S 22 30 12 16 1015.0 1014.9 0.0
17/07:30pm 20.8 16.4 10.3 51 5.7 S 24 33 13 18 1014.6 1014.5 0.0
17/07:00pm 20.8 16.9 10.9 53 5.5 S 22 28 12 15 1014.1 1014.1 0.0
17/06:30pm 22.1 17.5 11.2 50 6.1 S 26 32 14 17 1013.9 1013.9 0.0
17/06:00pm 22.6 19.0 11.7 50 6.2 S 22 30 12 16 1013.4 1013.4 0.0
17/05:30pm 24.8 19.8 11.0 42 7.8 S 28 35 15 19 1013.0 1013.0 0.0
17/05:00pm 26.2 21.0 8.7 33 9.6 S 26 35 14 19 1012.8 1012.8 0.0
17/04:30pm 28.1 23.9 7.4 27 11.2 S 19 26 10 14 1012.5 1012.4 0.0
17/04:00pm 28.7 26.2 6.7 25 11.8 S 9 22 5 12 1012.0 1011.9 0.0
17/03:30pm 29.5 28.1 5.6 22 12.6 SSE 2 9 1 5 1011.9 1011.8 0.0
17/03:00pm 29.9 27.4 6.5 23 12.6 SSE 9 15 5 8 1011.9 1011.8 0.0
17/02:30pm 30.0 27.9 6.6 23 12.6 E 7 19 4 10 1012.0 1011.9 0.0
17/02:00pm 29.0 26.1 6.4 24 12.1 NE 11 22 6 12 1012.3 1012.2 0.0
17/01:30pm 29.0 26.7 7.6 26 11.7 SE 9 17 5 9 1012.6 1012.6 0.0
17/01:00pm 28.8 26.0 6.8 25 11.8 ENE 11 19 6 10 1013.2 1013.2 0.0
17/12:30pm 28.6 24.5 7.8 27 11.4 ENE 19 24 10 13 1013.7 1013.7 0.0
17/12:00pm 27.1 23.7 7.5 29 10.6 E 15 20 8 11 1014.1 1014.1 0.0
17/11:30am 26.3 22.6 7.8 31 10.0 ENE 17 24 9 13 1014.7 1014.6 0.0
17/11:00am 24.5 21.9 9.3 38 8.3 E 13 19 7 10 1015.5 1015.4 0.0
17/10:30am 22.7 20.3 8.8 41 7.5 E 11 20 6 11 1016.1 1016.0 0.0
17/10:00am 21.3 17.8 8.6 44 6.8 E 17 24 9 13 1016.4 1016.3 0.0
17/09:30am 19.4 16.9 9.6 53 5.3 E 13 20 7 11 1016.9 1016.9 0.0
17/09:00am 17.3 14.6 9.0 58 4.3 E 13 17 7 9 1017.4 1017.4 0.0
17/08:30am 16.2 13.9 8.9 62 3.8 E 11 17 6 9 1017.5 1017.5 0.0
17/08:00am 13.9 12.2 9.7 76 2.2 E 9 11 5 6 1017.7 1017.7 0.0
17/07:30am 10.5 9.7 9.7 95 0.4 NE 4 6 2 3 1017.6 1017.6 0.0
17/07:00am 7.6 5.7 6.9 95 0.3 E 6 7 3 4 1017.5 1017.5 0.0
17/06:30am 5.4 4.2 4.5 94 0.4 CALM 0 0 0 0 1017.1 1017.1 0.0
17/06:00am 5.2 2.6 4.2 93 0.4 ENE 7 9 4 5 1016.9 1016.9 0.0
17/05:30am 5.8 3.3 4.8 93 0.4 E 7 9 4 5 1016.7 1016.7 0.0
17/05:00am 6.1 3.3 5.1 93 0.4 ENE 9 11 5 6 1016.6 1016.6 0.0
17/04:30am 5.6 2.7 4.4 92 0.5 ENE 9 9 5 5 1016.4 1016.3 0.0
17/04:00am 5.9 3.4 4.5 91 0.6 NE 7 9 4 5 1016.3 1016.2 0.0
17/03:30am 6.8 4.4 5.4 91 0.6 ENE 7 7 4 4 1016.2 1016.1 0.0
17/03:00am 6.4 3.5 4.9 90 0.7 E 9 9 5 5 1016.1 1016.0 0.0
17/02:30am 6.4 3.5 4.4 87 0.9 E 9 9 5 5 1016.2 1016.1 0.0
17/02:00am 8.2 6.0 6.2 87 0.9 E 7 9 4 5 1016.4 1016.3 0.0
17/01:30am 10.0 7.3 7.3 83 1.3 E 11 13 6 7 1016.5 1016.5 0.0
17/01:00am 11.5 9.2 7.6 77 1.9 E 9 13 5 7 1016.5 1016.5 0.0
17/12:30am 12.4 9.8 7.9 74 2.2 ESE 11 15 6 8 1016.4 1016.3 0.0
17/12:00am 12.4 9.9 8.3 76 2.0 ESE 11 15 6 8 1016.7 1016.7 0.0
 
Date/Time
WST
Temp
°C
App
Temp
°C
Dew
Point
Rel
Hum
%
Delta-T
°C
Wind Press
QNH
hPa
Press
MSL
hPa
Rain
since 9 am
mm
Dir
 
Spd
km/h
Gust
km/h
Spd
kts
Gust
kts
16/11:30pm 11.0 9.0 8.8 86 1.1 ESE 9 11 5 6 1016.7 1016.7 0.0
16/11:00pm 7.6 4.9 5.7 88 0.9 E 9 11 5 6 1016.8 1016.8 0.0
16/10:30pm 8.3 6.0 5.8 84 1.1 E 7 7 4 4 1017.2 1017.2 0.0
16/10:00pm 10.9 8.4 6.6 75 2.0 ESE 9 13 5 7 1017.5 1017.5 0.0
16/09:30pm 9.9 6.9 6.2 78 1.7 E 11 11 6 6 1017.6 1017.6 0.0
16/09:00pm 14.0 11.5 8.0 67 3.0 ESE 11 13 6 7 1017.7 1017.7 0.0
16/08:30pm 14.9 12.2 7.5 61 3.7 ESE 11 13 6 7 1017.7 1017.7 0.0
16/08:00pm 16.3 14.0 7.5 56 4.4 SE 9 13 5 7 1017.6 1017.6 0.0
16/07:30pm 17.1 14.8 7.5 53 4.9 SSE 9 15 5 8 1017.3 1017.3 0.0
16/07:00pm 17.5 15.3 7.8 53 5.0 SSE 9 13 5 7 1017.0 1017.0 0.0
16/06:30pm 18.7 16.7 7.2 47 5.9 SE 7 11 4 6 1016.7 1016.7 0.0
16/06:00pm 20.0 18.1 7.4 44 6.5 SE 7 11 4 6 1016.5 1016.5 0.0
16/05:30pm 21.9 19.1 7.0 38 7.7 SE 11 15 6 8 1016.3 1016.2 0.0
16/05:00pm 23.2 19.9 6.5 34 8.6 SE 13 20 7 11 1016.2 1016.1 0.0
16/04:30pm 23.7 19.9 6.0 32 9.1 SE 15 26 8 14 1016.1 1016.0 0.0
16/04:00pm 24.1 20.3 5.9 31 9.4 ESE 15 24 8 13 1016.1 1016.0 0.0
16/03:30pm 24.1 20.8 6.4 32 9.2 SE 13 20 7 11 1016.4 1016.3 0.0
16/03:00pm 24.3 20.8 7.0 33 9.1 ESE 15 20 8 11 1016.6 1016.6 0.0
16/02:30pm 24.3 20.5 7.4 34 9.0 E 17 17 9 9 1016.8 1016.8 0.0
16/02:00pm 23.6 19.7 7.3 35 8.6 E 17 22 9 12 1017.1 1017.1 0.0
16/01:30pm 23.6 20.6 7.7 36 8.4 ESE 13 22 7 12 1017.5 1017.5 0.0
16/01:00pm 23.1 20.2 8.0 38 8.0 E 13 20 7 11 1018.0 1018.0 0.0
16/12:30pm 22.3 18.5 7.7 39 7.7 ESE 17 20 9 11 1018.3 1018.3 0.0
16/12:00pm 21.6 17.9 7.8 41 7.2 ESE 17 22 9 12 1018.9 1018.9 0.0
16/11:30am 21.0 16.8 8.3 44 6.7 E 20 28 11 15 1019.4 1019.3 0.0
16/11:00am 20.5 17.2 9.4 49 6.0 E 17 26 9 14 1020.0 1019.9 0.0
16/10:30am 18.9 14.8 8.8 52 5.3 ESE 20 28 11 15 1020.4 1020.3 0.0
16/10:00am 17.8 14.0 9.7 59 4.3 E 20 33 11 18 1020.7 1020.7 0.0
16/09:30am 16.5 12.6 9.4 63 3.7 ESE 20 30 11 16 1020.8 1020.8 0.0
16/09:00am 14.8 10.4 9.0 68 3.0 ESE 22 33 12 18 1021.0 1021.0 0.0
16/08:30am 13.7 8.9 9.0 73 2.4 E 24 33 13 18 1021.2 1021.2 0.0
16/08:00am 12.6 8.2 9.1 79 1.8 ESE 22 32 12 17 1021.1 1021.1 0.0
16/07:30am 11.3 7.8 8.9 85 1.2 ESE 17 24 9 13 1021.2 1021.2 0.0
16/07:00am 10.1 6.9 8.4 89 0.8 ESE 15 20 8 11 1021.2 1021.2 0.0
16/06:30am 9.1 6.1 7.9 92 0.6 ESE 13 19 7 10 1021.2 1021.2 0.0
16/06:00am 8.9 5.5 7.7 92 0.6 ESE 15 20 8 11 1021.3 1021.3 0.0
16/05:30am 9.0 6.0 7.6 91 0.7 ESE 13 19 7 10 1021.1 1021.1 0.0
16/05:00am 9.4 6.0 7.8 90 0.8 ESE 15 20 8 11 1021.3 1021.3 0.0
16/04:30am 9.9 6.6 8.2 89 0.8 ESE 15 20 8 11 1021.1 1021.1 0.0
16/04:00am 10.2 6.6 8.3 88 0.9 ESE 17 24 9 13 1020.6 1020.6 0.0
16/03:30am 10.5 7.3 8.4 87 1.0 ESE 15 20 8 11 1020.4 1020.3 0.0
16/03:00am 10.9 7.0 8.7 86 1.1 ESE 19 28 10 15 1019.9 1019.8 0.0
16/02:30am 11.2 7.1 8.8 85 1.2 ESE 20 30 11 16 1019.6 1019.5 0.0
16/02:00am 11.3 7.7 8.5 83 1.4 ESE 17 28 9 15 1020.6 1020.6 0.0
16/01:30am 11.3 7.7 8.2 81 1.5 ESE 17 22 9 12 1020.9 1020.9 0.0
16/01:00am 11.6 7.9 7.9 78 1.8 ESE 17 24 9 13 1021.0 1021.0 0.0
16/12:30am 11.6 8.5 7.3 75 2.1 ESE 13 17 7 9 1021.2 1021.2 0.0
16/12:00am 12.0 8.9 7.1 72 2.4 ESE 13 20 7 11 1021.3 1021.3 0.0
 
Date/Time
WST
Temp
°C
App
Temp
°C
Dew
Point
Rel
Hum
%
Delta-T
°C
Wind Press
QNH
hPa
Press
MSL
hPa
Rain
since 9 am
mm
Dir
 
Spd
km/h
Gust
km/h
Spd
kts
Gust
kts
15/11:30pm 11.9 9.2 7.4 74 2.2 ESE 11 15 6 8 1021.4 1021.4 0.0
15/11:00pm 12.9 9.9 7.8 71 2.5 ESE 13 20 7 11 1021.5 1021.5 0.0
15/10:30pm 13.2 9.9 8.1 71 2.6 ESE 15 20 8 11 1021.6 1021.6 0.0
15/10:00pm 13.7 10.5 8.5 71 2.6 SE 15 22 8 12 1021.8 1021.8 0.0
15/09:30pm 14.4 11.0 9.0 70 2.8 SE 17 24 9 13 1022.1 1022.1 0.0
15/09:00pm 14.9 11.5 9.3 69 2.9 SE 17 24 9 13 1022.0 1022.0 0.0
15/08:30pm 15.6 11.9 9.5 67 3.2 SE 19 24 10 13 1021.9 1021.9 0.0
15/08:00pm 16.3 12.7 9.9 66 3.4 SE 19 26 10 14 1021.9 1021.9 0.0
15/07:30pm 16.6 13.0 9.8 64 3.6 SSE 19 26 10 14 1021.7 1021.7 0.0
15/07:00pm 17.5 13.6 9.4 59 4.3 S 20 26 11 14 1021.4 1021.4 0.0
15/06:30pm 16.7 14.0 8.9 60 4.1 S 13 15 7 8 1021.2 1021.2 0.0
15/06:00pm 19.2 15.7 8.8 51 5.5 S 17 20 9 11 1021.0 1021.0 0.0
15/05:30pm 20.6 17.4 8.3 45 6.5 SSE 15 20 8 11 1020.7 1020.7 0.0
15/05:00pm 21.8 18.5 8.0 41 7.3 SSE 15 22 8 12 1020.5 1020.5 0.0
15/04:30pm 22.4 19.4 7.8 39 7.7 S 13 19 7 10 1020.4 1020.3 0.0
15/04:00pm 23.1 21.4 7.6 37 8.2 SSE 6 13 3 7 1020.3 1020.2 0.0
15/03:30pm 22.9 20.5 7.0 36 8.3 SSE 9 15 5 8 1020.3 1020.2 0.0
15/03:00pm 23.2 21.9 7.7 37 8.2 SSW 4 9 2 5 1020.4 1020.3 0.0
15/02:30pm 23.1 21.4 7.6 37 8.2 ESE 6 17 3 9 1020.7 1020.7 0.0
15/02:00pm 23.6 22.1 8.5 38 8.1 E 6 13 3 7 1020.8 1020.8 0.0
15/01:30pm 22.6 21.2 9.4 43 7.2 S 7 15 4 8 1021.1 1021.1 0.0
15/01:00pm 22.4 21.0 9.6 44 7.0 E 7 17 4 9 1021.5 1021.5 0.0
15/12:30pm 21.6 18.9 8.8 44 6.9 SE 13 20 7 11 1022.1 1022.1 0.0
15/12:00pm 21.1 18.3 8.4 44 6.7 E 13 20 7 11 1022.8 1022.8 0.0
15/11:30am 20.9 18.5 10.1 50 5.9 ESE 13 20 7 11 1023.0 1023.0 0.0
15/11:00am 20.4 18.1 10.5 53 5.4 SE 13 19 7 10 1023.4 1023.4 0.0
15/10:30am 19.6 17.3 10.3 55 5.1 ESE 13 20 7 11 1023.7 1023.7 0.0
15/10:00am 17.9 16.3 10.3 61 4.1 ESE 9 15 5 8 1023.8 1023.8 0.0
15/09:30am 16.5 14.6 10.4 67 3.3 ESE 11 15 6 8 1024.3 1024.2 0.0
15/09:00am 15.6 13.8 10.8 73 2.6 SE 11 15 6 8 1024.3 1024.2 0.0
15/08:30am 13.7 12.4 11.4 86 1.2 S 9 13 5 7 1024.5 1024.5 0.0
15/08:00am 11.3 10.2 10.5 95 0.4 SSW 7 11 4 6 1024.5 1024.5 0.0
15/07:30am 9.5 7.9 8.9 96 0.3 S 7 9 4 5 1024.5 1024.5 0.0
15/07:00am 6.7 5.8 6.0 95 0.3 CALM 0 2 0 1 1024.1 1024.0 0.0
15/06:30am 5.1 3.1 4.4 95 0.3 ENE 4 6 2 3 1023.9 1023.9 0.0
15/06:00am 3.3 0.0 2.4 94 0.4 NE 9 11 5 6 1024.1 1024.0 0.0
15/05:30am 3.5 1.9 2.6 94 0.4 CALM 0 0 0 0 1023.9 1023.9 0.0
15/05:00am 5.6 4.4 4.7 94 0.4 CALM 0 0 0 0 1023.6 1023.6 0.0
15/04:30am 4.0 1.4 3.1 94 0.4 NE 6 7 3 4 1023.5 1023.5 0.0
15/04:00am 3.9 1.3 3.0 94 0.4 NE 6 7 3 4 1023.4 1023.4 0.0
15/03:30am 4.4 1.9 3.5 94 0.4 ENE 6 7 3 4 1023.2 1023.2 0.0
15/03:00am 4.4 1.8 3.4 93 0.4 NE 6 9 3 5 1023.2 1023.2 0.0
15/02:30am 4.9 2.2 3.9 93 0.4 NNE 7 9 4 5 1023.5 1023.5 0.0
15/02:00am 4.6 1.5 3.6 93 0.4 NE 9 11 5 6 1023.5 1023.5 0.0
15/01:30am 5.2 3.5 4.2 93 0.4 NNE 2 7 1 4 1023.5 1023.5 0.0
15/01:00am 5.7 4.1 4.5 92 0.5 N 2 6 1 3 1023.7 1023.7 0.0
15/12:30am 6.1 3.8 4.9 92 0.5 N 6 7 3 4 1023.8 1023.8 0.0
15/12:00am 7.1 4.1 6.0 93 0.5 W 11 17 6 9 1023.9 1023.9 0.0
 
Date/Time
WST
Temp
°C
App
Temp
°C
Dew
Point
Rel
Hum
%
Delta-T
°C
Wind Press
QNH
hPa
Press
MSL
hPa
Rain
since 9 am
mm
Dir
 
Spd
km/h
Gust
km/h
Spd
kts
Gust
kts
14/11:30pm 6.2 3.7 4.8 91 0.6 N 7 9 4 5 1023.6 1023.6 0.0

Other Formats:

Comma delimited format used in spreadsheet applications
http://www.bom.gov.au/fwo/IDW60801/IDW60801.95625.axf

JavaScript Object Notation format (JSON) in row-major order
http://www.bom.gov.au/fwo/IDW60801/IDW60801.95625.json